createdAt,value
2023-05-05T00:01:08.154Z,97181.00
2023-05-05T00:03:37.470Z,97178.25
2023-05-05T00:06:05.370Z,97172.38
2023-05-05T00:08:32.002Z,97176.09
2023-05-05T00:10:58.405Z,97169.75
2023-05-05T00:13:24.821Z,97174.34
2023-05-05T00:15:53.631Z,97186.75
2023-05-05T00:18:21.134Z,97169.50
2023-05-05T00:20:48.323Z,97174.72
2023-05-05T00:23:16.005Z,97159.50
2023-05-05T00:25:42.626Z,97173.13
2023-05-05T00:28:09.092Z,97172.53
2023-05-05T00:30:36.123Z,97170.22
2023-05-05T00:33:02.574Z,97166.63
2023-05-05T00:35:29.134Z,97160.72
2023-05-05T00:37:55.476Z,97147.59
2023-05-05T00:40:22.004Z,97167.16
2023-05-05T00:42:52.214Z,97160.78
2023-05-05T00:45:20.125Z,97152.53
2023-05-05T00:47:49.585Z,97153.44
2023-05-05T00:50:28.656Z,97150.00
2023-05-05T00:52:58.761Z,97138.44
2023-05-05T00:55:26.066Z,97122.69
2023-05-05T00:57:53.364Z,97124.09
2023-05-05T01:00:20.022Z,97119.22
2023-05-05T01:02:46.514Z,97129.53
2023-05-05T01:05:15.022Z,97122.75
2023-05-05T01:08:09.406Z,97128.53
2023-05-05T01:10:45.121Z,97126.22
2023-05-05T01:13:32.213Z,97131.00
2023-05-05T01:16:14.605Z,97128.50
2023-05-05T01:18:47.501Z,97147.88
2023-05-05T01:21:42.364Z,97130.94
2023-05-05T01:24:45.867Z,97143.19
2023-05-05T01:27:48.240Z,97144.03
2023-05-05T01:30:23.974Z,97134.72
2023-05-05T01:33:00.727Z,97140.34
2023-05-05T01:35:33.047Z,97142.88
2023-05-05T01:38:05.766Z,97150.56
2023-05-05T01:40:38.143Z,97144.13
2023-05-05T01:43:07.387Z,97127.31
2023-05-05T01:45:38.000Z,97143.88
2023-05-05T01:48:06.660Z,97126.72
2023-05-05T01:50:34.543Z,97146.47
2023-05-05T01:53:02.494Z,97136.22
2023-05-05T01:55:30.498Z,97139.59
2023-05-05T01:57:58.630Z,97140.22
2023-05-05T02:00:26.966Z,97127.53
2023-05-05T02:02:56.727Z,97141.41
2023-05-05T02:05:24.620Z,97137.47
2023-05-05T02:07:54.871Z,97146.94
2023-05-05T02:10:21.517Z,97150.63
2023-05-05T02:12:48.936Z,97144.22
2023-05-05T02:15:16.575Z,97149.56
2023-05-05T02:17:43.669Z,97150.19
2023-05-05T02:20:14.621Z,97153.31
2023-05-05T02:22:41.477Z,97146.88
2023-05-05T02:25:09.009Z,97140.44
2023-05-05T02:27:37.385Z,97147.31
2023-05-05T02:30:18.017Z,97145.66
2023-05-05T02:32:50.721Z,97159.25
2023-05-05T02:35:20.793Z,97155.63
2023-05-05T02:37:51.397Z,97159.63
2023-05-05T02:40:22.361Z,97162.09
2023-05-05T02:42:51.341Z,97152.41
2023-05-05T02:45:19.957Z,97160.38
2023-05-05T02:47:46.404Z,97160.22
2023-05-05T02:50:12.996Z,97157.44
2023-05-05T02:52:39.732Z,97156.81
2023-05-05T02:55:07.127Z,97154.38
2023-05-05T02:58:00.549Z,97151.94
2023-05-05T03:00:39.444Z,97168.31
2023-05-05T03:03:18.211Z,97155.59
2023-05-05T03:05:53.615Z,97162.63
2023-05-05T03:08:29.946Z,97168.16
2023-05-05T03:11:06.179Z,97165.56
2023-05-05T03:13:36.332Z,97151.00
2023-05-05T03:16:06.653Z,97157.91
2023-05-05T03:18:40.003Z,97164.44
2023-05-05T03:21:09.899Z,97155.19
2023-05-05T03:23:36.584Z,97161.75
2023-05-05T03:26:02.974Z,97161.13
2023-05-05T03:28:29.481Z,97163.13
2023-05-05T03:30:56.488Z,97159.00
2023-05-05T03:33:22.846Z,97157.38
2023-05-05T03:35:49.228Z,97159.84
2023-05-05T03:38:15.629Z,97158.78
2023-05-05T03:40:44.650Z,97156.84
2023-05-05T03:43:11.588Z,97170.75
2023-05-05T03:45:38.022Z,97164.19
2023-05-05T03:48:04.852Z,97158.22
2023-05-05T03:50:31.282Z,97166.47
2023-05-05T03:52:57.657Z,97168.31
2023-05-05T03:55:24.470Z,97148.31
2023-05-05T03:57:50.823Z,97169.56
2023-05-05T04:00:17.495Z,97157.97
2023-05-05T04:02:44.028Z,97156.78
2023-05-05T04:05:10.563Z,97158.94
2023-05-05T04:07:36.942Z,97167.00
2023-05-05T04:10:03.512Z,97178.34
2023-05-05T04:12:29.978Z,97177.75
2023-05-05T04:14:56.387Z,97180.50
2023-05-05T04:17:22.766Z,97173.78
2023-05-05T04:19:49.137Z,97185.59
2023-05-05T04:22:15.541Z,97189.81
2023-05-05T04:24:41.905Z,97190.41
2023-05-05T04:27:08.358Z,97175.75
2023-05-05T04:29:34.714Z,97184.16
2023-05-05T04:32:01.095Z,97177.16
2023-05-05T04:34:27.500Z,97184.59
2023-05-05T04:36:53.880Z,97181.44
2023-05-05T04:39:20.212Z,97191.59
2023-05-05T04:41:46.740Z,97173.66
2023-05-05T04:44:13.121Z,97183.16
2023-05-05T04:46:39.799Z,97172.63
2023-05-05T04:49:06.328Z,97182.75
2023-05-05T04:51:32.855Z,97183.00
2023-05-05T04:53:59.234Z,97173.19
2023-05-05T04:56:25.673Z,97187.31
2023-05-05T04:58:52.027Z,97185.38
2023-05-05T05:01:18.378Z,97195.59
2023-05-05T05:03:44.861Z,97190.72
2023-05-05T05:06:11.268Z,97182.88
2023-05-05T05:08:37.663Z,97195.84
2023-05-05T05:11:04.082Z,97184.22
2023-05-05T05:13:30.450Z,97199.88
2023-05-05T05:15:56.853Z,97192.53
2023-05-05T05:18:23.261Z,97209.19
2023-05-05T05:20:49.598Z,97200.47
2023-05-05T05:23:15.958Z,97204.41
2023-05-05T05:25:42.844Z,97206.44
2023-05-05T05:28:10.505Z,97220.22
2023-05-05T05:30:37.444Z,97216.41
2023-05-05T05:33:03.952Z,97204.31
2023-05-05T05:35:31.476Z,97229.91
2023-05-05T05:37:57.913Z,97223.25
2023-05-05T05:40:24.307Z,97222.56
2023-05-05T05:42:50.726Z,97224.84
2023-05-05T05:45:17.195Z,97229.03
2023-05-05T05:47:43.598Z,97232.88
2023-05-05T05:50:10.617Z,97223.19
2023-05-05T05:52:37.180Z,97227.91
2023-05-05T05:55:03.797Z,97220.78
2023-05-05T05:57:30.140Z,97225.16
2023-05-05T05:59:56.542Z,97224.34
2023-05-05T06:02:23.012Z,97227.56
2023-05-05T06:04:49.436Z,97236.78
2023-05-05T06:07:15.867Z,97228.34
2023-05-05T06:09:42.253Z,97231.41
2023-05-05T06:12:08.642Z,97225.28
2023-05-05T06:14:35.059Z,97231.34
2023-05-05T06:17:01.418Z,97226.19
2023-05-05T06:19:27.799Z,97231.69
2023-05-05T06:21:54.141Z,97220.22
2023-05-05T06:24:20.510Z,97224.84
2023-05-05T06:26:46.857Z,97217.25
2023-05-05T06:29:13.263Z,97222.25
2023-05-05T06:31:39.623Z,97227.69
2023-05-05T06:34:06.270Z,97222.34
2023-05-05T06:36:32.723Z,97224.28
2023-05-05T06:38:59.158Z,97237.03
2023-05-05T06:41:25.512Z,97219.81
2023-05-05T06:43:51.860Z,97242.03
2023-05-05T06:46:18.225Z,97242.72
2023-05-05T06:48:44.877Z,97230.63
2023-05-05T06:51:11.301Z,97232.63
2023-05-05T06:53:37.674Z,97236.88
2023-05-05T06:56:04.245Z,97226.25
2023-05-05T06:58:31.577Z,97237.47
2023-05-05T07:00:58.054Z,97243.59
2023-05-05T07:03:24.913Z,97235.56
2023-05-05T07:05:51.478Z,97243.75
2023-05-05T07:08:18.052Z,97232.75
2023-05-05T07:10:44.477Z,97246.97
2023-05-05T07:13:10.864Z,97241.69
2023-05-05T07:15:37.636Z,97245.63
2023-05-05T07:18:04.180Z,97237.94
2023-05-05T07:20:30.668Z,97237.03
2023-05-05T07:22:57.030Z,97234.66
2023-05-05T07:25:23.397Z,97237.63
2023-05-05T07:27:50.059Z,97239.31
2023-05-05T07:30:18.490Z,97246.47
2023-05-05T07:32:45.869Z,97245.47
2023-05-05T07:35:12.486Z,97236.03
2023-05-05T07:37:38.896Z,97235.91
2023-05-05T07:40:06.151Z,97244.97
2023-05-05T07:42:32.757Z,97244.22
2023-05-05T07:44:59.239Z,97250.16
2023-05-05T07:47:25.864Z,97244.31
2023-05-05T07:49:52.256Z,97245.50
2023-05-05T07:52:19.438Z,97243.19
2023-05-05T07:54:48.517Z,97242.44
2023-05-05T07:57:15.408Z,97245.91
2023-05-05T07:59:43.816Z,97248.56
2023-05-05T08:02:12.648Z,97248.88
2023-05-05T08:04:40.444Z,97237.59
2023-05-05T08:07:08.083Z,97244.41
2023-05-05T08:09:38.039Z,97240.25
2023-05-05T08:12:04.609Z,97248.56
2023-05-05T08:14:31.661Z,97247.06
2023-05-05T08:16:58.024Z,97236.84
2023-05-05T08:19:29.400Z,97241.28
2023-05-05T08:21:56.323Z,97240.09
2023-05-05T08:24:22.777Z,97250.72
2023-05-05T08:26:49.236Z,97247.97
2023-05-05T08:29:15.746Z,97254.53
2023-05-05T08:31:42.154Z,97253.03
2023-05-05T08:34:08.543Z,97254.25
2023-05-05T08:36:34.970Z,97245.78
2023-05-05T08:39:01.582Z,97252.97
2023-05-05T08:41:28.270Z,97251.16
2023-05-05T08:43:54.865Z,97249.69
2023-05-05T08:46:22.578Z,97243.13
2023-05-05T08:48:51.293Z,97251.81
2023-05-05T08:51:19.637Z,97245.75
2023-05-05T08:53:58.388Z,97248.16
2023-05-05T08:56:33.046Z,97244.63
2023-05-05T08:59:01.502Z,97233.81
2023-05-05T09:01:28.521Z,97240.66
2023-05-05T09:03:55.534Z,97236.84
2023-05-05T09:06:23.397Z,97226.81
2023-05-05T09:08:50.494Z,97245.78
2023-05-05T09:11:16.851Z,97234.59
2023-05-05T09:13:43.497Z,97228.22
2023-05-05T09:16:09.992Z,97237.22
2023-05-05T09:18:40.949Z,97232.31
2023-05-05T09:21:24.723Z,97222.03
2023-05-05T09:24:08.398Z,97236.34
2023-05-05T09:26:42.640Z,97230.41
2023-05-05T09:29:09.167Z,97234.59
2023-05-05T09:31:36.752Z,97231.56
2023-05-05T09:34:14.652Z,97232.19
2023-05-05T09:36:48.127Z,97232.06
2023-05-05T09:39:19.331Z,97223.13
2023-05-05T09:41:46.814Z,97230.13
2023-05-05T09:44:17.128Z,97223.47
2023-05-05T09:46:51.546Z,97240.38
2023-05-05T09:49:20.477Z,97232.94
2023-05-05T09:51:47.501Z,97225.22
2023-05-05T09:54:24.275Z,97228.19
2023-05-05T09:56:52.202Z,97222.44
2023-05-05T09:59:19.265Z,97231.34
2023-05-05T10:01:46.098Z,97234.47
2023-05-05T10:04:29.944Z,97223.03
2023-05-05T10:06:57.719Z,97228.22
2023-05-05T10:09:27.316Z,97228.50
2023-05-05T10:11:56.082Z,97230.81
2023-05-05T10:14:24.065Z,97229.66
2023-05-05T10:16:52.757Z,97229.97
2023-05-05T10:19:21.548Z,97227.25
2023-05-05T10:21:53.083Z,97215.22
2023-05-05T10:24:42.651Z,97225.69
2023-05-05T10:27:23.746Z,97225.63
2023-05-05T10:30:04.909Z,97214.41
2023-05-05T10:35:16.723Z,97204.97
2023-05-05T10:37:44.757Z,97210.19
2023-05-05T10:40:13.256Z,97207.50
2023-05-05T10:42:40.125Z,97202.69
2023-05-05T10:45:07.588Z,97197.88
2023-05-05T10:47:36.046Z,97204.72
2023-05-05T10:50:08.261Z,97194.16
2023-05-05T10:52:56.379Z,97201.31
2023-05-05T10:55:39.002Z,97200.97
2023-05-05T10:58:05.347Z,97203.09
2023-05-05T11:00:41.039Z,97207.69
2023-05-05T11:03:20.076Z,97201.47
2023-05-05T11:06:05.226Z,97204.34
2023-05-05T11:08:33.251Z,97198.69
2023-05-05T11:11:00.787Z,97189.06
2023-05-05T11:13:27.461Z,97184.91
2023-05-05T11:15:55.433Z,97187.88
2023-05-05T11:18:33.713Z,97190.28
2023-05-05T11:21:00.008Z,97180.19
2023-05-05T11:23:26.757Z,97186.81
2023-05-05T11:25:53.942Z,97172.88
2023-05-05T11:28:25.406Z,97179.78
2023-05-05T11:30:54.885Z,97178.69
2023-05-05T11:33:38.155Z,97171.94
2023-05-05T11:36:06.951Z,97173.50
2023-05-05T11:38:36.301Z,97164.81
2023-05-05T11:41:09.772Z,97163.59
2023-05-05T11:43:36.565Z,97164.00
2023-05-05T11:46:13.084Z,97155.66
2023-05-05T11:48:54.564Z,97150.78
2023-05-05T11:51:22.122Z,97142.03
2023-05-05T11:53:50.350Z,97148.91
2023-05-05T11:56:20.477Z,97145.16
2023-05-05T11:58:47.779Z,97143.00
2023-05-05T12:01:15.187Z,97149.41
2023-05-05T12:03:41.963Z,97153.22
2023-05-05T12:06:08.777Z,97146.06
2023-05-05T12:08:38.882Z,97146.09
2023-05-05T12:11:10.643Z,97149.91
2023-05-05T12:13:37.193Z,97154.88
2023-05-05T12:16:10.050Z,97155.25
2023-05-05T12:18:37.111Z,97155.22
2023-05-05T12:21:17.174Z,97144.28
2023-05-05T12:23:43.698Z,97138.31
2023-05-05T12:26:29.603Z,97147.81
2023-05-05T12:28:57.479Z,97138.38
2023-05-05T12:31:34.448Z,97133.34
2023-05-05T12:34:01.792Z,97140.81
2023-05-05T12:36:30.459Z,97146.81
2023-05-05T12:38:57.030Z,97138.47
2023-05-05T12:41:23.473Z,97133.84
2023-05-05T12:43:54.823Z,97142.13
2023-05-05T12:46:22.866Z,97153.06
2023-05-05T12:49:05.071Z,97140.53
2023-05-05T12:51:33.563Z,97137.38
2023-05-05T12:54:05.944Z,97148.31
2023-05-05T12:56:40.678Z,97142.97
2023-05-05T12:59:12.358Z,97130.53
2023-05-05T13:01:56.147Z,97121.25
2023-05-05T13:04:24.289Z,97121.72
2023-05-05T13:07:09.880Z,97122.53
2023-05-05T13:09:36.374Z,97119.53
2023-05-05T13:12:03.831Z,97103.66
2023-05-05T13:14:31.834Z,97105.59
2023-05-05T13:16:58.333Z,97106.78
2023-05-05T13:19:25.066Z,97106.03
2023-05-05T13:21:52.525Z,97105.25
2023-05-05T13:24:31.145Z,97098.50
2023-05-05T13:27:01.254Z,97090.16
2023-05-05T13:29:31.081Z,97087.56
2023-05-05T13:31:57.854Z,97082.22
2023-05-05T13:34:24.197Z,97076.09
2023-05-05T13:36:50.581Z,97080.66
2023-05-05T13:39:16.949Z,97084.38
2023-05-05T13:41:44.610Z,97088.50
2023-05-05T13:44:11.012Z,97090.72
2023-05-05T13:46:37.442Z,97089.97
2023-05-05T13:49:03.826Z,97088.50
2023-05-05T13:51:30.169Z,97084.00
2023-05-05T13:53:56.567Z,97093.50
2023-05-05T13:56:26.117Z,97093.81
2023-05-05T13:58:52.588Z,97078.31
2023-05-05T14:01:19.262Z,97068.88
2023-05-05T14:03:45.715Z,97088.47
2023-05-05T14:06:12.088Z,97079.31
2023-05-05T14:08:38.496Z,97087.59
2023-05-05T14:11:04.979Z,97078.56
2023-05-05T14:13:31.390Z,97088.25
2023-05-05T14:15:58.376Z,97087.13
2023-05-05T14:18:25.581Z,97080.34
2023-05-05T14:20:52.020Z,97085.63
2023-05-05T14:23:18.507Z,97077.50
2023-05-05T14:25:44.908Z,97075.56
2023-05-05T14:28:11.364Z,97088.25
2023-05-05T14:30:37.751Z,97094.56
2023-05-05T14:33:04.268Z,97085.00
2023-05-05T14:35:31.197Z,97087.59
2023-05-05T14:37:57.580Z,97096.25
2023-05-05T14:40:23.961Z,97100.34
2023-05-05T14:42:50.954Z,97115.25
2023-05-05T14:45:17.938Z,97117.72
2023-05-05T14:47:44.597Z,97102.50
2023-05-05T14:50:11.144Z,97113.69
2023-05-05T14:52:40.058Z,97127.81
2023-05-05T14:55:07.584Z,97128.56
2023-05-05T14:57:34.443Z,97132.53
2023-05-05T15:00:00.915Z,97132.06
2023-05-05T15:02:27.385Z,97129.72
2023-05-05T15:04:53.869Z,97136.44
2023-05-05T15:07:21.259Z,97128.44
2023-05-05T15:09:47.619Z,97126.47
2023-05-05T15:12:14.011Z,97136.41
2023-05-05T15:14:40.816Z,97123.78
2023-05-05T15:17:07.231Z,97126.31
2023-05-05T15:19:33.602Z,97137.63
2023-05-05T15:21:59.981Z,97134.50
2023-05-05T15:24:26.348Z,97136.44
2023-05-05T15:26:52.700Z,97123.81
2023-05-05T15:29:19.075Z,97126.75
2023-05-05T15:31:45.582Z,97130.59
2023-05-05T15:34:12.026Z,97130.19
2023-05-05T15:36:38.402Z,97121.28
2023-05-05T15:39:04.832Z,97126.53
2023-05-05T15:41:34.176Z,97131.16
2023-05-05T15:44:01.993Z,97127.22
2023-05-05T15:46:31.335Z,97129.44
2023-05-05T15:48:57.718Z,97137.91
2023-05-05T15:51:24.154Z,97132.22
2023-05-05T15:53:52.201Z,97131.69
2023-05-05T15:56:18.949Z,97126.97
2023-05-05T15:58:45.311Z,97124.31
2023-05-05T16:01:11.697Z,97135.16
2023-05-05T16:03:38.106Z,97127.50
2023-05-05T16:06:04.609Z,97132.13
2023-05-05T16:08:31.971Z,97133.25
2023-05-05T16:10:58.343Z,97122.38
2023-05-05T16:13:24.691Z,97138.69
2023-05-05T16:15:51.059Z,97136.47
2023-05-05T16:18:17.421Z,97132.41
2023-05-05T16:20:43.778Z,97132.97
2023-05-05T16:23:10.281Z,97129.47
2023-05-05T16:25:36.633Z,97132.75
2023-05-05T16:28:03.192Z,97132.34
2023-05-05T16:30:29.697Z,97135.22
2023-05-05T16:32:56.185Z,97127.81
2023-05-05T16:35:22.982Z,97122.25
2023-05-05T16:37:49.524Z,97131.72
2023-05-05T16:40:15.906Z,97125.91
2023-05-05T16:42:44.320Z,97119.81
2023-05-05T16:45:11.381Z,97121.59
2023-05-05T16:47:37.993Z,97108.94
2023-05-05T16:50:04.850Z,97112.72
2023-05-05T16:52:31.346Z,97106.31
2023-05-05T16:54:57.812Z,97105.81
2023-05-05T16:57:24.267Z,97102.25
2023-05-05T16:59:50.914Z,97104.28
2023-05-05T17:02:17.353Z,97113.25
2023-05-05T17:04:43.827Z,97108.06
2023-05-05T17:07:10.328Z,97122.88
2023-05-05T17:09:36.731Z,97120.44
2023-05-05T17:12:04.293Z,97114.19
2023-05-05T17:14:31.118Z,97123.41
2023-05-05T17:16:57.810Z,97132.47
2023-05-05T17:19:24.262Z,97125.75
2023-05-05T17:21:50.657Z,97113.59
2023-05-05T17:24:17.059Z,97121.13
2023-05-05T17:26:43.487Z,97121.13
2023-05-05T17:29:10.981Z,97115.13
2023-05-05T17:31:39.239Z,97117.31
2023-05-05T17:34:05.703Z,97118.41
2023-05-05T17:36:32.135Z,97111.91
2023-05-05T17:38:58.499Z,97119.50
2023-05-05T17:41:25.772Z,97114.47
2023-05-05T17:43:52.801Z,97117.56
2023-05-05T17:46:19.349Z,97114.38
2023-05-05T17:48:46.127Z,97111.50
2023-05-05T17:51:12.505Z,97113.97
2023-05-05T17:53:39.354Z,97120.66
2023-05-05T17:56:08.063Z,97125.28
2023-05-05T17:58:35.399Z,97111.16
2023-05-05T18:01:01.804Z,97121.91
2023-05-05T18:03:28.422Z,97122.66
2023-05-05T18:05:54.888Z,97113.88
2023-05-05T18:08:21.292Z,97131.97
2023-05-05T18:10:47.780Z,97140.34
2023-05-05T18:13:14.214Z,97133.16
2023-05-05T18:15:41.082Z,97139.22
2023-05-05T18:18:07.617Z,97136.72
2023-05-05T18:20:34.176Z,97127.94
2023-05-05T18:23:00.524Z,97131.66
2023-05-05T18:25:27.059Z,97130.13
2023-05-05T18:27:53.451Z,97131.31
2023-05-05T18:30:19.882Z,97129.59
2023-05-05T18:32:46.344Z,97144.56
2023-05-05T18:35:12.767Z,97135.44
2023-05-05T18:37:39.477Z,97152.53
2023-05-05T18:40:06.980Z,97151.22
2023-05-05T18:42:34.423Z,97142.31
2023-05-05T18:45:01.517Z,97153.69
2023-05-05T18:47:28.655Z,97145.41
2023-05-05T18:49:55.055Z,97139.88
2023-05-05T18:52:21.666Z,97147.91
2023-05-05T18:54:48.170Z,97149.34
2023-05-05T18:57:14.536Z,97141.34
2023-05-05T18:59:40.962Z,97145.78
2023-05-05T19:02:07.884Z,97153.53
2023-05-05T19:04:37.308Z,97151.03
2023-05-05T19:07:04.417Z,97149.28
2023-05-05T19:09:30.829Z,97154.13
2023-05-05T19:11:57.248Z,97167.00
2023-05-05T19:14:23.605Z,97164.50
2023-05-05T19:16:50.052Z,97167.13
2023-05-05T19:19:16.947Z,97163.88
2023-05-05T19:21:43.323Z,97167.03
2023-05-05T19:24:09.803Z,97173.53
2023-05-05T19:26:36.403Z,97161.56
2023-05-05T19:29:02.822Z,97179.31
2023-05-05T19:31:30.909Z,97180.66
2023-05-05T19:33:59.988Z,97174.50
2023-05-05T19:36:27.631Z,97162.50
2023-05-05T19:38:55.192Z,97168.91
2023-05-05T19:41:21.575Z,97171.19
2023-05-05T19:43:49.715Z,97182.09
2023-05-05T19:46:19.222Z,97188.53
2023-05-05T19:48:46.141Z,97196.69
2023-05-05T19:51:13.814Z,97178.34
2023-05-05T19:53:42.183Z,97185.19
2023-05-05T19:56:09.363Z,97182.06
2023-05-05T19:58:59.011Z,97187.63
2023-05-05T20:01:26.272Z,97180.81
2023-05-05T20:03:54.454Z,97188.88
2023-05-05T20:06:21.506Z,97194.00
2023-05-05T20:08:47.915Z,97176.00
2023-05-05T20:11:16.051Z,97175.63
2023-05-05T20:13:43.016Z,97174.50
2023-05-05T20:16:09.832Z,97175.31
2023-05-05T20:18:36.288Z,97184.56
2023-05-05T20:21:02.844Z,97191.34
2023-05-05T20:23:29.387Z,97180.47
2023-05-05T20:25:56.562Z,97186.72
2023-05-05T20:28:23.133Z,97188.63
2023-05-05T20:30:49.556Z,97190.59
2023-05-05T20:33:15.929Z,97190.66
2023-05-05T20:35:42.277Z,97194.19
2023-05-05T20:38:09.660Z,97198.25
2023-05-05T20:40:36.326Z,97193.97
2023-05-05T20:43:02.831Z,97197.78
2023-05-05T20:45:31.602Z,97197.72
2023-05-05T20:47:58.557Z,97199.81
2023-05-05T20:50:25.033Z,97204.16
2023-05-05T20:52:51.418Z,97211.88
2023-05-05T20:55:17.940Z,97207.09
2023-05-05T20:57:44.326Z,97217.13
2023-05-05T21:00:11.343Z,97215.56
2023-05-05T21:02:37.993Z,97220.94
2023-05-05T21:05:05.181Z,97218.19
2023-05-05T21:07:34.124Z,97207.94
2023-05-05T21:10:01.716Z,97201.19
2023-05-05T21:12:28.815Z,97201.47
2023-05-05T21:14:58.446Z,97207.31
2023-05-05T21:17:28.187Z,97208.38
2023-05-05T21:19:55.867Z,97212.69
2023-05-05T21:22:22.344Z,97199.06
2023-05-05T21:24:49.259Z,97194.66
2023-05-05T21:27:15.716Z,97206.94
2023-05-05T21:29:42.134Z,97218.34
2023-05-05T21:32:10.165Z,97216.81
2023-05-05T21:34:37.659Z,97214.38
2023-05-05T21:37:04.380Z,97220.91
2023-05-05T21:39:32.330Z,97214.38
2023-05-05T21:42:00.782Z,97222.81
2023-05-05T21:44:28.155Z,97222.72
2023-05-05T21:46:55.172Z,97222.56
2023-05-05T21:49:21.598Z,97231.16
2023-05-05T21:51:47.966Z,97232.28
2023-05-05T21:54:14.356Z,97219.44
2023-05-05T21:56:40.846Z,97222.22
2023-05-05T21:59:07.256Z,97229.00
2023-05-05T22:01:33.797Z,97214.78
2023-05-05T22:04:00.218Z,97214.66
2023-05-05T22:06:26.702Z,97215.44
2023-05-05T22:08:53.254Z,97227.38
2023-05-05T22:11:19.650Z,97219.91
2023-05-05T22:13:46.716Z,97220.69
2023-05-05T22:16:17.408Z,97206.31
2023-05-05T22:18:44.375Z,97215.63
2023-05-05T22:21:10.940Z,97225.00
2023-05-05T22:23:37.410Z,97217.97
2023-05-05T22:26:04.794Z,97212.91
2023-05-05T22:28:31.159Z,97235.56
2023-05-05T22:30:57.563Z,97231.63
2023-05-05T22:33:24.380Z,97244.03
2023-05-05T22:35:51.962Z,97234.66
2023-05-05T22:38:18.543Z,97239.25
2023-05-05T22:40:45.287Z,97239.25
2023-05-05T22:43:11.779Z,97236.50
2023-05-05T22:45:38.122Z,97237.09
2023-05-05T22:48:04.912Z,97240.31
2023-05-05T22:50:31.276Z,97237.09
2023-05-05T22:52:57.668Z,97238.19
2023-05-05T22:55:24.729Z,97240.78
2023-05-05T22:57:52.449Z,97242.00
2023-05-05T23:00:19.066Z,97237.81
2023-05-05T23:02:45.569Z,97241.97
2023-05-05T23:05:12.151Z,97234.75
2023-05-05T23:07:38.723Z,97230.75
2023-05-05T23:10:05.545Z,97222.31
2023-05-05T23:12:32.017Z,97236.69
2023-05-05T23:14:58.565Z,97223.19
2023-05-05T23:17:24.971Z,97221.81
2023-05-05T23:19:51.393Z,97237.75
2023-05-05T23:22:17.772Z,97230.72
2023-05-05T23:24:44.156Z,97233.16
2023-05-05T23:27:10.731Z,97233.59
2023-05-05T23:29:37.060Z,97235.88
2023-05-05T23:32:03.474Z,97222.25
2023-05-05T23:34:29.883Z,97216.16
2023-05-05T23:36:57.095Z,97222.72
2023-05-05T23:39:23.454Z,97226.13
2023-05-05T23:41:49.813Z,97221.25
2023-05-05T23:44:16.179Z,97221.81
2023-05-05T23:46:42.611Z,97228.56
2023-05-05T23:49:09.034Z,97218.13
2023-05-05T23:51:35.541Z,97213.53
2023-05-05T23:54:02.047Z,97218.75
2023-05-05T23:56:28.473Z,97220.75
2023-05-05T23:58:54.872Z,97220.25
